Time;durP1;ratioP1;P1;durP2;ratioP2;P2;SDS_P1;SDS_P2;PMS_P1;PMS_P2;Temp;Humidity;BMP_temperature;BMP_pressure;BME280_temperature;BME280_humidity;BME280_pressure;Samples;Min_cycle;Max_cycle;Signal;HPM_P1;HPM_P2
2021/10/12 00:01:10;;;;;;;0.70;0.60;;;;;;;11.48;100.00;-18960.41;4974447;28;20419;-71
2021/10/12 00:03:41;;;;;;;0.70;0.60;;;;;;;11.40;100.00;-19209.38;4974898;28;20449;-73
2021/10/12 00:06:08;;;;;;;0.70;0.70;;;;;;;11.39;100.00;-19394.78;4974322;28;20455;-72
2021/10/12 00:08:35;;;;;;;0.70;0.70;;;;;;;11.34;100.00;-19664.56;4975542;28;20456;-72
2021/10/12 00:11:03;;;;;;;0.70;0.70;;;;;;;11.43;100.00;-19867.44;4975623;28;20941;-74
2021/10/12 00:13:31;;;;;;;0.70;0.70;;;;;;;11.43;100.00;-20080.66;4975330;28;20423;-73
2021/10/12 00:15:58;;;;;;;0.70;0.60;;;;;;;11.49;100.00;-20300.47;4974775;28;20774;-73
2021/10/12 00:18:25;;;;;;;0.70;0.60;;;;;;;11.39;100.00;-20603.81;4990265;28;20416;-73
2021/10/12 00:20:54;;;;;;;0.70;0.70;;;;;;;11.47;100.00;-20703.78;4974483;28;20479;-73
2021/10/12 00:23:20;;;;;;;0.70;0.63;;;;;;;11.53;100.00;-20953.75;4974305;28;20460;-72
2021/10/12 00:25:50;;;;;;;0.80;0.73;;;;;;;11.43;100.00;-20993.00;4975403;28;20518;-73
2021/10/12 00:28:17;;;;;;;0.80;0.70;;;;;;;11.48;100.00;-20994.22;4974089;28;20514;-73
2021/10/12 00:30:44;;;;;;;0.70;0.70;;;;;;;11.47;100.00;-20993.97;4974085;28;20490;-74
2021/10/12 00:33:12;;;;;;;0.80;0.80;;;;;;;11.45;100.00;-20993.41;4974775;28;20479;-74
2021/10/12 00:35:48;;;;;;;0.70;0.60;;;;;;;11.35;100.00;-20990.91;4971581;28;20442;-74
2021/10/12 00:38:22;;;;;;;0.70;0.60;;;;;;;11.26;100.00;-20988.28;4988143;28;20486;-73
2021/10/12 00:40:54;;;;;;;0.70;0.60;;;;;;;11.15;100.00;-20985.25;4973595;28;20451;-72
2021/10/12 00:43:28;;;;;;;0.70;0.70;;;;;;;11.06;100.00;-20519.97;4973976;28;20412;-73
2021/10/12 00:46:00;;;;;;;0.70;0.63;;;;;;;10.99;100.00;-20036.81;4972827;28;20473;-72
2021/10/12 00:48:38;;;;;;;0.70;0.60;;;;;;;10.94;100.00;-19684.47;4974859;28;20978;-72
2021/10/12 00:51:14;;;;;;;0.70;0.70;;;;;;;10.90;100.00;-19192.22;4956907;28;20452;-72
2021/10/12 00:53:52;;;;;;;0.70;0.60;;;;;;;10.91;100.00;-18821.28;4987348;28;20562;-72
2021/10/12 00:56:22;;;;;;;0.80;0.70;;;;;;;10.91;100.00;-18630.72;4956977;28;20810;-72
2021/10/12 00:58:52;;;;;;;0.70;0.60;;;;;;;10.90;100.00;-18432.50;4973965;28;20537;-72
2021/10/12 01:01:28;;;;;;;0.70;0.70;;;;;;;10.94;100.00;-18320.47;4974920;28;20498;-72
2021/10/12 01:04:00;;;;;;;0.70;0.60;;;;;;;10.90;100.00;-18289.56;4974335;28;20873;-72
2021/10/12 01:06:37;;;;;;;0.80;0.80;;;;;;;10.85;100.00;-18378.69;4973180;28;20940;-73
2021/10/12 01:09:10;;;;;;;0.80;0.80;;;;;;;10.84;100.00;-18463.69;4973539;28;20524;-72
2021/10/12 01:11:41;;;;;;;0.70;0.70;;;;;;;10.83;100.00;-18553.72;4973236;28;20410;-72
2021/10/12 01:14:13;;;;;;;0.70;0.60;;;;;;;10.81;100.00;-18673.59;4974407;28;20414;-72
2021/10/12 01:16:47;;;;;;;0.70;0.70;;;;;;;10.83;100.00;-18754.28;4973837;28;20492;-73
2021/10/12 01:19:18;;;;;;;0.70;0.70;;;;;;;10.84;100.00;-18962.63;4973421;28;20460;-74
2021/10/12 01:21:50;;;;;;;0.70;0.60;;;;;;;10.82;100.00;-19115.03;4973993;28;20431;-73
2021/10/12 01:24:22;;;;;;;0.70;0.60;;;;;;;10.89;100.00;-19292.25;4973790;28;20478;-73
2021/10/12 01:26:56;;;;;;;0.70;0.60;;;;;;;10.81;100.00;-19468.22;4989584;28;20892;-72
2021/10/12 01:29:28;;;;;;;0.70;0.60;;;;;;;10.82;100.00;-19591.28;4973672;28;20446;-73
2021/10/12 01:32:04;;;;;;;0.70;0.60;;;;;;;10.80;100.00;-19786.28;4972489;28;20438;-73
2021/10/12 01:34:36;;;;;;;0.70;0.60;;;;;;;10.79;100.00;-19936.38;4973789;28;20504;-73
2021/10/12 01:37:06;;;;;;;0.70;0.60;;;;;;;10.82;100.00;-20057.56;4973531;28;20545;-73
2021/10/12 01:39:34;;;;;;;0.70;0.60;;;;;;;10.83;100.00;-20268.22;4973220;28;20544;-72
2021/10/12 01:42:01;;;;;;;0.70;0.60;;;;;;;10.90;100.00;-20345.25;4974633;28;20415;-73
2021/10/12 01:44:28;;;;;;;0.70;0.70;;;;;;;10.86;100.00;-20439.41;4972170;28;20831;-73
2021/10/12 01:46:55;;;;;;;0.70;0.60;;;;;;;10.88;100.00;-20525.28;4973401;28;20450;-72
2021/10/12 01:49:22;;;;;;;0.70;0.60;;;;;;;10.83;100.00;-20604.00;4973489;28;20513;-73
2021/10/12 01:51:50;;;;;;;0.70;0.60;;;;;;;10.86;100.00;-20690.13;4974027;28;20803;-73
2021/10/12 01:54:20;;;;;;;0.70;0.60;;;;;;;10.95;100.00;-20737.41;4974548;28;20455;-73
2021/10/12 01:56:48;;;;;;;0.70;0.60;;;;;;;10.89;100.00;-20826.25;4960489;28;20556;-73
2021/10/12 01:59:15;;;;;;;0.70;0.60;;;;;;;10.87;100.00;-20930.94;4964889;28;20465;-74
2021/10/12 02:01:44;;;;;;;0.70;0.70;;;;;;;10.86;100.00;-20977.66;4977895;28;20546;-73
2021/10/12 02:04:11;;;;;;;0.97;0.97;;;;;;;10.87;100.00;-20977.78;4992441;28;20497;-74
2021/10/12 02:06:38;;;;;;;0.70;0.60;;;;;;;10.86;100.00;-20977.66;4977587;28;20478;-73
2021/10/12 02:09:06;;;;;;;0.70;0.60;;;;;;;10.82;100.00;-20976.53;4976786;28;20464;-73
2021/10/12 02:11:34;;;;;;;0.70;0.60;;;;;;;10.77;100.00;-20975.16;4977748;28;21042;-74
2021/10/12 02:14:02;;;;;;;0.70;0.60;;;;;;;10.78;100.00;-20975.44;4977952;28;20848;-73
2021/10/12 02:16:30;;;;;;;0.70;0.60;;;;;;;10.79;100.00;-20975.56;4976892;28;20452;-73
2021/10/12 02:18:57;;;;;;;0.70;0.60;;;;;;;10.82;100.00;-20976.41;4977924;28;20438;-74
2021/10/12 02:21:26;;;;;;;0.70;0.60;;;;;;;10.85;100.00;-20977.22;4992480;28;20768;-74
2021/10/12 02:23:56;;;;;;;0.70;0.60;;;;;;;10.87;100.00;-20977.78;4977507;28;20986;-73
2021/10/12 02:26:23;;;;;;;0.70;0.60;;;;;;;10.81;100.00;-20976.13;4966911;28;20475;-74
2021/10/12 02:28:51;;;;;;;0.70;0.60;;;;;;;10.78;100.00;-20975.28;4976966;28;20547;-74
2021/10/12 02:31:18;;;;;;;0.70;0.70;;;;;;;10.83;100.00;-20976.69;4975259;28;20490;-74
2021/10/12 02:33:46;;;;;;;0.70;0.60;;;;;;;10.84;100.00;-20976.94;4977589;28;20434;-73
2021/10/12 02:36:13;;;;;;;0.70;0.60;;;;;;;10.86;100.00;-20977.66;4977842;28;20459;-73
2021/10/12 02:38:40;;;;;;;0.70;0.60;;;;;;;10.87;100.00;-20977.91;4977784;28;20900;-72
2021/10/12 02:41:08;;;;;;;0.70;0.60;;;;;;;10.87;100.00;-20977.78;4976931;28;20436;-72
2021/10/12 02:43:35;;;;;;;0.70;0.60;;;;;;;10.87;100.00;-20977.78;4977179;28;20834;-73
2021/10/12 02:46:05;;;;;;;0.70;0.70;;;;;;;10.85;100.00;-20977.22;4975666;28;20973;-72
2021/10/12 02:48:32;;;;;;;0.70;0.60;;;;;;;10.81;100.00;-20976.13;4960562;28;20972;-72
2021/10/12 02:50:59;;;;;;;0.70;0.60;;;;;;;10.84;100.00;-20976.94;4977308;28;20411;-71
2021/10/12 02:53:26;;;;;;;0.70;0.60;;;;;;;10.85;100.00;-20977.38;4976880;28;20498;-72
2021/10/12 02:55:55;;;;;;;0.70;0.70;;;;;;;10.77;100.00;-20975.03;4976841;28;20476;-72
2021/10/12 02:58:25;;;;;;;0.70;0.60;;;;;;;10.76;100.00;-20974.75;4976625;28;20474;-72
2021/10/12 03:00:52;;;;;;;0.70;0.67;;;;;;;10.73;100.00;-20974.06;4973939;28;20497;-72
2021/10/12 03:03:20;;;;;;;0.70;0.60;;;;;;;10.75;100.00;-20974.59;4975707;28;20888;-72
2021/10/12 03:05:47;;;;;;;0.70;0.60;;;;;;;10.70;100.00;-20973.09;4976568;28;20454;-72
2021/10/12 03:08:17;;;;;;;0.70;0.70;;;;;;;10.73;100.00;-20974.06;4976147;28;20530;-74
2021/10/12 03:10:44;;;;;;;0.70;0.60;;;;;;;10.75;100.00;-20974.47;4975977;28;20470;-72
2021/10/12 03:13:11;;;;;;;0.70;0.67;;;;;;;10.72;100.00;-20973.63;4975541;28;20813;-71
2021/10/12 03:15:39;;;;;;;0.80;0.80;;;;;;;10.70;100.00;-20973.09;4976872;28;20415;-73
2021/10/12 03:18:08;;;;;;;0.70;0.70;;;;;;;10.68;100.00;-20972.53;4973510;28;20460;-72
2021/10/12 03:20:36;;;;;;;0.70;0.60;;;;;;;10.73;100.00;-20974.06;4975215;28;20494;-72
2021/10/12 03:23:06;;;;;;;0.70;0.60;;;;;;;10.68;100.00;-20972.53;4976866;28;20477;-72
2021/10/12 03:25:34;;;;;;;0.80;0.80;;;;;;;10.64;100.00;-20971.56;4975279;28;20427;-71
2021/10/12 03:28:02;;;;;;;0.70;0.60;;;;;;;10.62;100.00;-20971.16;4967258;28;20446;-71
2021/10/12 03:30:30;;;;;;;0.70;0.60;;;;;;;10.67;100.00;-20972.38;4943454;28;20443;-73
2021/10/12 03:32:57;;;;;;;0.70;0.60;;;;;;;10.63;100.00;-20971.41;4973450;28;20473;-72
2021/10/12 03:35:33;;;;;;;0.70;0.70;;;;;;;10.66;100.00;-20971.97;4990317;28;20462;-72
2021/10/12 03:38:02;;;;;;;0.70;0.60;;;;;;;10.60;100.00;-20970.59;4975869;28;20845;-73
2021/10/12 03:40:30;;;;;;;0.60;0.50;;;;;;;10.57;100.00;-20969.63;4976560;28;20429;-74
2021/10/12 03:42:57;;;;;;;0.70;0.60;;;;;;;10.59;100.00;-20970.31;4975274;28;20473;-72
2021/10/12 03:45:25;;;;;;;0.70;0.60;;;;;;;10.54;100.00;-20968.78;4975145;28;20774;-72
2021/10/12 03:47:52;;;;;;;0.70;0.60;;;;;;;10.63;100.00;-20971.28;4976205;28;20450;-72
2021/10/12 03:50:19;;;;;;;0.70;0.60;;;;;;;10.68;100.00;-20972.53;4975610;28;20431;-74
2021/10/12 03:52:46;;;;;;;0.70;0.60;;;;;;;10.63;100.00;-20971.28;4960484;28;20529;-73
2021/10/12 03:55:15;;;;;;;0.70;0.60;;;;;;;10.63;100.00;-20971.41;4980129;28;20458;-72
2021/10/12 03:57:42;;;;;;;1.13;1.03;;;;;;;10.67;100.00;-20972.25;4989854;28;20529;-72
2021/10/12 04:00:10;;;;;;;0.70;0.60;;;;;;;10.67;100.00;-20972.38;4974332;28;20974;-73
2021/10/12 04:02:37;;;;;;;0.70;0.60;;;;;;;10.67;100.00;-20972.25;4975157;28;20430;-72
2021/10/12 04:05:05;;;;;;;0.70;0.60;;;;;;;10.63;100.00;-20971.28;4974916;28;20828;-73
2021/10/12 04:07:32;;;;;;;0.80;0.80;;;;;;;10.60;100.00;-20970.59;4974554;28;20858;-73
2021/10/12 04:09:59;;;;;;;0.70;0.60;;;;;;;10.69;100.00;-20972.81;4975972;28;20778;-73
2021/10/12 04:12:27;;;;;;;0.70;0.60;;;;;;;10.64;100.00;-20971.69;4975297;28;20478;-74
2021/10/12 04:14:54;;;;;;;0.70;0.60;;;;;;;10.61;100.00;-20970.72;4974319;28;20527;-73
2021/10/12 04:17:21;;;;;;;0.70;0.60;;;;;;;10.55;100.00;-20969.22;4974382;28;20478;-71
2021/10/12 04:19:48;;;;;;;0.70;0.60;;;;;;;10.53;100.00;-20968.66;4989997;28;20455;-72
2021/10/12 04:22:14;;;;;;;0.70;0.60;;;;;;;10.58;100.00;-20970.03;4975414;28;20472;-73
2021/10/12 04:24:42;;;;;;;0.70;0.60;;;;;;;10.55;100.00;-20969.06;4974388;28;20424;-74
2021/10/12 04:27:09;;;;;;;0.70;0.60;;;;;;;10.53;100.00;-20968.50;4974793;28;20454;-72
2021/10/12 04:29:37;;;;;;;0.70;0.70;;;;;;;10.48;100.00;-20967.28;4974074;28;20444;-72
2021/10/12 04:32:05;;;;;;;0.70;0.60;;;;;;;10.48;100.00;-20967.28;4974030;28;20431;-73
2021/10/12 04:34:32;;;;;;;0.70;0.60;;;;;;;10.45;100.00;-20966.31;4974270;28;20841;-73
2021/10/12 04:36:59;;;;;;;1.50;0.90;;;;;;;10.42;100.00;-20965.63;4974463;28;20546;-74
2021/10/12 04:39:28;;;;;;;0.70;0.70;;;;;;;10.42;100.00;-20965.47;4974548;28;21033;-72
2021/10/12 04:41:57;;;;;;;0.70;0.60;;;;;;;10.40;100.00;-20965.06;4975138;28;20426;-71
2021/10/12 04:44:26;;;;;;;0.80;0.70;;;;;;;10.36;100.00;-20963.94;4974461;28;20471;-71
2021/10/12 04:46:55;;;;;;;0.70;0.60;;;;;;;10.35;100.00;-20963.81;4975069;28;20446;-71
2021/10/12 04:49:22;;;;;;;0.70;0.60;;;;;;;10.31;100.00;-20962.56;4975125;28;20430;-71
2021/10/12 04:51:49;;;;;;;0.70;0.60;;;;;;;10.25;100.00;-20960.91;4972877;28;20450;-71
2021/10/12 04:54:17;;;;;;;0.70;0.60;;;;;;;10.23;100.00;-20960.34;4974724;28;20507;-71
2021/10/12 04:56:44;;;;;;;0.70;0.60;;;;;;;10.27;100.00;-20961.59;4975579;28;20938;-72
2021/10/12 04:59:11;;;;;;;0.70;0.60;;;;;;;10.35;100.00;-20963.81;4970811;28;20467;-71
2021/10/12 05:01:38;;;;;;;0.70;0.60;;;;;;;10.40;100.00;-20965.19;4974997;28;20511;-75
2021/10/12 05:04:07;;;;;;;0.80;0.80;;;;;;;10.44;100.00;-20966.03;4975374;28;20435;-73
2021/10/12 05:06:34;;;;;;;0.70;0.70;;;;;;;10.48;100.00;-20967.13;4975339;28;20463;-71
2021/10/12 05:09:03;;;;;;;0.70;0.60;;;;;;;10.50;100.00;-20967.69;4973663;28;20468;-72
2021/10/12 05:11:33;;;;;;;0.70;0.60;;;;;;;10.49;100.00;-20967.53;4972724;28;20443;-72
2021/10/12 05:14:00;;;;;;;0.70;0.60;;;;;;;10.53;100.00;-20968.66;4972947;28;20550;-71
2021/10/12 05:16:29;;;;;;;0.70;0.60;;;;;;;10.56;100.00;-20969.47;4974298;28;20784;-71
2021/10/12 05:18:58;;;;;;;0.70;0.70;;;;;;;10.60;100.00;-20970.59;4973164;28;20513;-73
2021/10/12 05:21:27;;;;;;;0.70;0.63;;;;;;;10.61;100.00;-20970.88;4970855;28;20544;-73
2021/10/12 05:23:54;;;;;;;0.70;0.60;;;;;;;10.67;100.00;-20972.38;4973211;28;21069;-71
2021/10/12 05:26:24;;;;;;;0.70;0.60;;;;;;;10.64;100.00;-20971.56;4973838;28;20493;-72
2021/10/12 05:28:53;;;;;;;0.70;0.67;;;;;;;10.60;100.00;-20970.59;4971552;28;20909;-72
2021/10/12 05:31:21;;;;;;;0.70;0.70;;;;;;;10.64;100.00;-20971.69;4988200;28;20477;-72
2021/10/12 05:33:49;;;;;;;0.80;0.77;;;;;;;10.68;100.00;-20972.66;4972682;28;20552;-72
2021/10/12 05:36:17;;;;;;;0.70;0.60;;;;;;;10.67;100.00;-20972.25;4974252;28;20919;-72
2021/10/12 05:38:46;;;;;;;0.67;0.60;;;;;;;10.66;100.00;-20971.97;4974115;28;20560;-72
2021/10/12 05:41:14;;;;;;;0.70;0.70;;;;;;;10.63;100.00;-20971.41;4969147;28;20975;-72
2021/10/12 05:43:41;;;;;;;0.70;0.70;;;;;;;10.60;100.00;-20970.59;4985522;28;20440;-72
2021/10/12 05:46:08;;;;;;;0.70;0.60;;;;;;;10.61;100.00;-20970.72;4973246;28;20442;-72
2021/10/12 05:48:35;;;;;;;0.70;0.60;;;;;;;10.56;100.00;-20969.47;4973647;28;20457;-73
2021/10/12 05:51:03;;;;;;;0.70;0.60;;;;;;;10.66;100.00;-20971.97;4973100;28;20451;-72
2021/10/12 05:53:50;;;;;;;0.70;0.60;;;;;;;10.64;100.00;-20971.56;4969156;28;20527;-72
2021/10/12 05:56:28;;;;;;;0.70;0.70;;;;;;;10.62;100.00;-20971.16;4959495;28;20452;-72
2021/10/12 05:58:55;;;;;;;0.80;0.80;;;;;;;10.64;100.00;-20971.69;4970680;28;20476;-72
2021/10/12 06:01:24;;;;;;;0.70;0.60;;;;;;;10.60;100.00;-20970.44;4972660;28;20477;-72
2021/10/12 06:03:52;;;;;;;0.70;0.63;;;;;;;10.66;100.00;-20972.13;4966890;28;20460;-71
2021/10/12 06:06:19;;;;;;;0.70;0.60;;;;;;;10.68;100.00;-20972.53;4973639;28;20435;-72
2021/10/12 06:08:46;;;;;;;0.70;0.60;;;;;;;10.72;100.00;-20973.63;4988886;28;20447;-72
2021/10/12 06:11:13;;;;;;;0.70;0.67;;;;;;;10.74;100.00;-20974.19;4972831;28;20501;-72
2021/10/12 06:13:43;;;;;;;0.70;0.60;;;;;;;10.73;100.00;-20974.06;4973928;28;20482;-72
2021/10/12 06:16:12;;;;;;;0.70;0.60;;;;;;;10.74;100.00;-20974.31;4972817;28;20545;-72
2021/10/12 06:18:39;;;;;;;0.70;0.70;;;;;;;10.73;100.00;-20973.91;4973674;28;20560;-72
2021/10/12 06:21:06;;;;;;;0.70;0.60;;;;;;;10.73;100.00;-20973.91;4972450;28;20439;-72
2021/10/12 06:23:33;;;;;;;0.70;0.70;;;;;;;10.80;100.00;-20975.84;4988568;28;20486;-72
2021/10/12 06:26:01;;;;;;;0.70;0.70;;;;;;;10.75;100.00;-20974.59;4987755;28;20442;-72
2021/10/12 06:28:29;;;;;;;0.70;0.67;;;;;;;10.71;100.00;-20973.34;4973974;28;20451;-72
2021/10/12 06:30:57;;;;;;;0.70;0.70;;;;;;;10.77;100.00;-20975.03;4972299;28;20515;-71
2021/10/12 06:33:24;;;;;;;0.70;0.60;;;;;;;10.86;100.00;-20977.66;4972452;28;20762;-73
2021/10/12 06:35:52;;;;;;;0.73;0.73;;;;;;;10.80;100.00;-20975.97;4971555;28;20536;-71
2021/10/12 06:38:19;;;;;;;0.70;0.60;;;;;;;10.82;100.00;-20976.41;4970666;28;20475;-70
2021/10/12 06:40:46;;;;;;;0.60;0.60;;;;;;;10.87;100.00;-20977.91;4971502;28;20434;-71
2021/10/12 06:43:13;;;;;;;0.70;0.60;;;;;;;11.01;100.00;-20981.50;4966853;28;20957;-72
2021/10/12 06:45:41;;;;;;;0.70;0.60;;;;;;;10.98;100.00;-20980.81;4961246;28;20462;-71
2021/10/12 06:48:09;;;;;;;0.70;0.70;;;;;;;11.03;100.00;-20982.22;4976580;28;20799;-71
2021/10/12 06:50:37;;;;;;;0.70;0.70;;;;;;;11.10;100.00;-20984.16;4977051;28;20431;-72
2021/10/12 06:53:04;;;;;;;0.60;0.60;;;;;;;10.97;100.00;-20980.41;4990353;28;20473;-71
2021/10/12 06:55:33;;;;;;;0.80;0.80;;;;;;;10.91;100.00;-20978.75;4976496;28;20851;-71
2021/10/12 06:57:59;;;;;;;0.70;0.60;;;;;;;10.89;100.00;-20978.34;4976010;28;20943;-70
2021/10/12 07:00:27;;;;;;;0.70;0.60;;;;;;;10.97;100.00;-20980.41;4976754;28;20914;-71
2021/10/12 07:02:54;;;;;;;0.70;0.60;;;;;;;11.00;100.00;-20981.38;4974174;28;20540;-71
2021/10/12 07:05:23;;;;;;;0.70;0.70;;;;;;;11.05;100.00;-20982.75;4977047;28;20482;-72
2021/10/12 07:07:50;;;;;;;0.70;0.60;;;;;;;10.99;100.00;-20981.09;4994904;28;20544;-71
2021/10/12 07:10:20;;;;;;;0.70;0.60;;;;;;;11.07;100.00;-20983.19;4995329;28;20472;-71
2021/10/12 07:12:48;;;;;;;0.70;0.67;;;;;;;11.06;100.00;-20982.91;4996255;28;20772;-71
2021/10/12 07:15:15;;;;;;;0.60;0.60;;;;;;;11.20;100.00;-20986.63;4978986;28;20439;-71
2021/10/12 07:17:43;;;;;;;0.70;0.60;;;;;;;11.20;100.00;-20986.63;4981193;28;20463;-72
2021/10/12 07:20:10;;;;;;;0.70;0.60;;;;;;;11.31;100.00;-20989.69;4975543;28;20497;-71
2021/10/12 07:22:39;;;;;;;0.70;0.60;;;;;;;11.27;100.00;-20988.56;4976618;28;20460;-71
2021/10/12 07:25:07;;;;;;;0.70;0.60;;;;;;;11.30;100.00;-20989.53;4976543;28;20421;-71
2021/10/12 07:27:35;;;;;;;0.70;0.60;;;;;;;11.26;100.00;-20988.28;4975899;28;20427;-71
2021/10/12 07:30:19;;;;;;;0.60;0.50;;;;;;;11.20;100.00;-20986.78;4975609;28;20411;-71
2021/10/12 07:32:49;;;;;;;0.70;0.60;;;;;;;11.20;100.00;-20986.63;4977220;28;20429;-71
2021/10/12 07:35:16;;;;;;;0.70;0.60;;;;;;;11.15;100.00;-20985.25;4971977;28;20443;-71
2021/10/12 07:37:44;;;;;;;0.70;0.60;;;;;;;11.10;100.00;-20984.00;4970591;28;20991;-74
2021/10/12 07:40:12;;;;;;;0.70;0.60;;;;;;;11.11;100.00;-20984.41;4971858;28;20460;-72
2021/10/12 07:42:40;;;;;;;0.60;0.60;;;;;;;11.14;100.00;-20985.09;4956175;28;20795;-72
2021/10/12 07:45:09;;;;;;;0.70;0.70;;;;;;;11.16;100.00;-20985.53;4971487;28;20429;-74
2021/10/12 07:47:36;;;;;;;0.70;0.67;;;;;;;11.02;100.00;-20981.94;4971482;28;20494;-71
2021/10/12 07:50:04;;;;;;;0.60;0.57;;;;;;;11.05;100.00;-20982.63;4973805;28;20487;-72
2021/10/12 07:52:33;;;;;;;0.70;0.60;;;;;;;11.01;100.00;-20981.66;4975429;28;21047;-71
2021/10/12 07:57:32;;;;;;;0.70;0.60;;;;;;;11.15;100.00;-20985.25;4974012;28;20425;-73
2021/10/12 07:59:59;;;;;;;0.60;0.60;;;;;;;11.12;100.00;-20984.56;4954920;29;20872;-71
2021/10/12 08:02:26;;;;;;;0.70;0.60;;;;;;;11.20;100.00;-20986.63;4955344;29;20433;-71
2021/10/12 08:04:53;;;;;;;0.70;0.60;;;;;;;11.24;100.00;-20987.75;4966268;28;20491;-72
2021/10/12 08:07:22;;;;;;;0.70;0.63;;;;;;;11.34;100.00;-20990.50;4975382;28;20451;-72
2021/10/12 08:09:49;;;;;;;1.17;1.07;;;;;;;11.33;100.00;-20990.22;4975840;28;20416;-72
2021/10/12 08:12:17;;;;;;;0.70;0.60;;;;;;;11.39;100.00;-20991.88;4975634;28;20426;-72
2021/10/12 08:14:47;;;;;;;0.70;0.60;;;;;;;11.53;100.00;-20995.75;4974908;28;20417;-72
2021/10/12 08:17:14;;;;;;;0.70;0.60;;;;;;;11.57;100.00;-20996.84;4975501;28;20454;-73
2021/10/12 08:19:41;;;;;;;0.70;0.60;;;;;;;11.72;100.00;-21000.88;4974961;28;20499;-72
2021/10/12 08:22:08;;;;;;;0.70;0.60;;;;;;;11.58;100.00;-20997.13;4973011;28;20467;-73
2021/10/12 08:24:35;;;;;;;0.70;0.67;;;;;;;11.66;100.00;-20999.06;4975584;28;20519;-72
2021/10/12 08:27:02;;;;;;;1.30;1.00;;;;;;;11.77;100.00;-21002.09;4974103;28;20435;-73
2021/10/12 08:29:31;;;;;;;0.70;0.70;;;;;;;11.78;100.00;-21002.38;4959008;28;20537;-73
2021/10/12 08:31:59;;;;;;;0.70;0.70;;;;;;;11.64;100.00;-20998.50;4982804;28;20495;-73
2021/10/12 08:34:26;;;;;;;0.70;0.60;;;;;;;11.71;100.00;-21000.59;4974385;28;20427;-72
2021/10/12 08:36:54;;;;;;;0.70;0.60;;;;;;;11.70;100.00;-21000.16;4973302;28;20835;-73
2021/10/12 08:39:30;;;;;;;0.70;0.60;;;;;;;11.76;100.00;-21001.84;4973645;28;20463;-72
2021/10/12 08:42:03;;;;;;;0.70;0.63;;;;;;;11.72;100.00;-21000.72;4974583;28;20427;-72
2021/10/12 08:44:46;;;;;;;0.70;0.67;;;;;;;11.81;100.00;-21003.22;4974705;28;20483;-72
2021/10/12 08:47:16;;;;;;;0.70;0.60;;;;;;;11.80;100.00;-21002.94;4987997;28;20483;-74
2021/10/12 08:49:44;;;;;;;0.70;0.60;;;;;;;11.76;100.00;-21001.84;4988434;28;20536;-74
2021/10/12 08:52:11;;;;;;;0.70;0.67;;;;;;;11.76;100.00;-21001.84;4972766;28;20436;-72
2021/10/12 08:54:38;;;;;;;0.70;0.60;;;;;;;11.89;100.00;-21005.44;4973478;28;21001;-71
2021/10/12 08:57:05;;;;;;;0.67;0.60;;;;;;;11.83;100.00;-21003.75;4975030;28;20479;-72
2021/10/12 08:59:34;;;;;;;0.70;0.60;;;;;;;11.76;100.00;-21001.97;4959042;28;20478;-72
2021/10/12 09:02:04;;;;;;;0.70;0.70;;;;;;;11.72;100.00;-21000.72;4974029;28;20792;-72
2021/10/12 09:04:37;;;;;;;0.70;0.60;;;;;;;11.73;100.00;-20989.09;4974990;28;20443;-71
2021/10/12 09:07:14;;;;;;;0.70;0.67;;;;;;;11.77;100.00;-21002.25;4973665;28;20445;-72
2021/10/12 09:09:41;;;;;;;0.70;0.60;;;;;;;11.61;100.00;-20997.81;4989865;28;20467;-71
2021/10/12 09:12:08;;;;;;;0.70;0.60;;;;;;;11.83;100.00;-20996.88;4973384;28;20451;-72
2021/10/12 09:14:50;;;;;;;0.70;0.50;;;;;;;11.69;100.00;-20999.91;4969670;28;20494;-72
2021/10/12 09:17:29;;;;;;;0.70;0.60;;;;;;;11.82;100.00;-21003.63;4955901;28;20424;-73
2021/10/12 09:19:57;;;;;;;0.70;0.60;;;;;;;11.80;100.00;-21002.94;4956401;28;20512;-73
2021/10/12 09:22:24;;;;;;;0.70;0.60;;;;;;;11.82;100.00;-21003.63;4974521;28;20478;-73
2021/10/12 09:25:05;;;;;;;0.70;0.60;;;;;;;11.81;100.00;-21003.34;4973239;28;20426;-74
2021/10/12 09:27:48;;;;;;;0.70;0.70;;;;;;;11.90;100.00;-21005.69;4974173;28;20440;-74
2021/10/12 09:30:16;;;;;;;0.70;0.70;;;;;;;11.91;100.00;-21005.97;4971307;28;20519;-72
2021/10/12 09:32:59;;;;;;;0.70;0.60;;;;;;;11.93;100.00;-21006.53;4974322;28;20764;-73
2021/10/12 09:35:27;;;;;;;0.90;0.90;;;;;;;11.95;100.00;-21007.09;4972115;28;20505;-72
2021/10/12 09:38:02;;;;;;;0.70;0.60;;;;;;;12.20;100.00;-20934.00;4989033;28;20464;-72
2021/10/12 09:40:29;;;;;;;0.70;0.60;;;;;;;12.19;100.00;-20921.31;4974318;28;20552;-72
2021/10/12 09:42:58;;;;;;;0.70;0.60;;;;;;;12.28;100.00;-20918.59;4972772;28;20444;-72
2021/10/12 09:45:38;;;;;;;18.73;2.50;;;;;;;12.36;100.00;-20915.66;4972732;28;20536;-73
2021/10/12 09:48:27;;;;;;;0.70;0.70;;;;;;;12.54;100.00;-20787.56;4973163;28;20456;-73
2021/10/12 09:51:12;;;;;;;0.70;0.70;;;;;;;12.48;100.00;-20725.50;4974446;28;20415;-74
2021/10/12 09:53:42;;;;;;;0.70;0.60;;;;;;;12.56;100.00;-20695.16;4969217;28;20591;-72
2021/10/12 09:56:10;;;;;;;0.70;0.60;;;;;;;12.77;100.00;-20496.97;4970062;28;20440;-72
2021/10/12 09:58:39;;;;;;;0.70;0.60;;;;;;;12.76;100.00;-20449.06;4957595;28;20540;-73
2021/10/12 10:01:08;;;;;;;0.70;0.60;;;;;;;12.68;100.00;-20286.09;4956988;28;20461;-72
2021/10/12 10:03:36;;;;;;;0.70;0.60;;;;;;;12.42;100.00;-20294.44;4973440;28;20541;-72
2021/10/12 10:06:07;;;;;;;0.93;0.90;;;;;;;12.27;100.00;-20262.97;4974071;28;20496;-72
2021/10/12 10:08:38;;;;;;;0.70;0.60;;;;;;;12.36;100.00;-20202.28;4974140;28;20448;-72
2021/10/12 10:11:27;;;;;;;1.10;1.10;;;;;;;12.26;100.00;-20239.97;4972748;28;21048;-71
2021/10/12 10:13:55;;;;;;;0.70;0.70;;;;;;;12.25;100.00;-20181.94;4973993;28;20511;-72
2021/10/12 10:16:24;;;;;;;0.70;0.60;;;;;;;12.23;100.00;-20183.94;4971996;28;20451;-71
2021/10/12 10:18:53;;;;;;;0.80;0.80;;;;;;;12.25;100.00;-20189.63;4974964;28;20782;-72
2021/10/12 10:21:23;;;;;;;0.67;0.60;;;;;;;12.35;100.00;-20144.38;4972755;28;20460;-74
2021/10/12 10:23:58;;;;;;;0.70;0.60;;;;;;;12.53;100.00;-20025.81;4964824;28;20535;-73
2021/10/12 10:26:29;;;;;;;0.70;0.67;;;;;;;12.56;100.00;-19956.38;4977486;28;20815;-72
2021/10/12 10:29:21;;;;;;;0.70;0.60;;;;;;;12.67;100.00;-19793.06;4976073;28;20502;-73
2021/10/12 10:32:15;;;;;;;0.70;0.70;;;;;;;12.47;100.00;-19793.22;4956827;28;20444;-72
2021/10/12 10:34:43;;;;;;;0.70;0.70;;;;;;;12.71;100.00;-19545.19;4974575;28;20438;-72
2021/10/12 10:37:27;;;;;;;0.70;0.60;;;;;;;12.88;100.00;-19451.41;4969189;28;20445;-72
2021/10/12 10:40:00;;;;;;;0.70;0.60;;;;;;;13.23;100.00;-19102.59;4972775;28;20461;-73
2021/10/12 10:42:54;;;;;;;0.70;0.67;;;;;;;13.63;100.00;-18681.50;4970045;28;20439;-72
2021/10/12 10:45:42;;;;;;;0.70;0.70;;;;;;;13.73;100.00;-18409.28;4964426;28;20476;-72
2021/10/12 10:48:12;;;;;;;0.77;0.70;;;;;;;13.96;100.00;-17976.13;4990802;28;20444;-72
2021/10/12 10:50:43;;;;;;;0.70;0.70;;;;;;;14.01;100.00;-17594.13;4977603;28;20447;-72
2021/10/12 10:53:11;;;;;;;0.80;0.80;;;;;;;14.30;100.00;-17146.25;4976837;28;20451;-73
2021/10/12 10:55:44;;;;;;;0.70;0.60;;;;;;;14.42;100.00;-16894.00;4976465;28;20528;-71
2021/10/12 10:58:14;;;;;;;0.70;0.60;;;;;;;14.41;100.00;-16452.22;4975066;28;20451;-72
2021/10/12 11:00:43;;;;;;;0.70;0.60;;;;;;;14.33;100.00;-16210.94;4976821;28;20460;-73
2021/10/12 11:03:35;;;;;;;0.70;0.67;;;;;;;14.58;100.00;-15794.09;4976937;28;20419;-74
2021/10/12 11:06:05;;;;;;;0.70;0.70;;;;;;;14.87;100.00;-15168.09;4975205;28;20496;-72
2021/10/12 11:08:39;;;;;;;0.70;0.67;;;;;;;14.75;100.00;-14908.31;4958959;28;20553;-73
2021/10/12 11:11:08;;;;;;;0.70;0.60;;;;;;;14.54;100.00;-14821.31;4974510;28;20970;-74
2021/10/12 11:13:37;;;;;;;0.70;0.70;;;;;;;14.33;100.00;-14694.06;4958510;28;20505;-72
2021/10/12 11:16:06;;;;;;;0.80;0.70;;;;;;;14.72;100.00;-14048.91;4975579;28;20482;-75
2021/10/12 11:18:36;;;;;;;0.70;0.60;;;;;;;14.44;100.00;-14302.06;4976343;28;21050;-76
2021/10/12 11:21:05;;;;;;;0.77;0.73;;;;;;;14.39;100.00;-14043.78;4975396;28;20946;-74
2021/10/12 11:23:33;;;;;;;0.70;0.70;;;;;;;14.44;100.00;-13650.59;4976584;28;20468;-76
2021/10/12 11:26:06;;;;;;;0.77;0.70;;;;;;;14.02;100.00;-14209.56;4975892;28;20458;-74
2021/10/12 11:28:34;;;;;;;0.70;0.70;;;;;;;14.07;100.00;-13816.53;4975386;28;20470;-76
2021/10/12 11:31:04;;;;;;;0.70;0.60;;;;;;;14.02;100.00;-13659.41;4975816;28;20876;-76